createdAt,value
2023-05-21T00:01:54.243Z,5.63
2023-05-21T00:04:20.783Z,4.63
2023-05-21T00:06:47.374Z,4.90
2023-05-21T00:09:13.966Z,5.22
2023-05-21T00:11:40.714Z,4.50
2023-05-21T00:14:07.381Z,4.07
2023-05-21T00:16:33.983Z,4.40
2023-05-21T00:19:00.603Z,4.80
2023-05-21T00:21:27.136Z,4.53
2023-05-21T00:23:56.935Z,4.63
2023-05-21T00:28:53.062Z,4.15
2023-05-21T00:31:19.687Z,4.85
2023-05-21T00:33:46.302Z,4.03
2023-05-21T00:36:14.419Z,4.78
2023-05-21T00:38:44.328Z,4.18
2023-05-21T00:43:40.378Z,4.22
2023-05-21T00:46:12.086Z,3.92
2023-05-21T00:48:39.808Z,3.25
2023-05-21T00:51:06.544Z,4.00
2023-05-21T00:53:35.099Z,3.92
2023-05-21T00:56:02.708Z,3.83
2023-05-21T00:58:29.868Z,4.03
2023-05-21T01:00:56.682Z,3.92
2023-05-21T01:03:23.662Z,3.72
2023-05-21T01:05:53.433Z,4.65
2023-05-21T01:08:23.610Z,4.03
2023-05-21T01:10:50.686Z,4.75
2023-05-21T01:13:17.930Z,4.55
2023-05-21T01:15:45.540Z,4.18
2023-05-21T01:18:14.368Z,3.55
2023-05-21T01:20:42.531Z,4.15
2023-05-21T01:23:09.193Z,4.28
2023-05-21T01:25:38.654Z,4.55
2023-05-21T01:29:00.832Z,17.17
2023-05-21T01:31:42.527Z,4.05
2023-05-21T01:34:12.361Z,4.32
2023-05-21T01:36:43.697Z,3.42
2023-05-21T01:39:19.096Z,3.70
2023-05-21T01:41:47.852Z,4.53
2023-05-21T01:44:18.378Z,4.28
2023-05-21T01:46:47.567Z,3.95
2023-05-21T01:49:15.873Z,4.07
2023-05-21T01:51:43.070Z,3.90
2023-05-21T01:54:09.744Z,4.00
2023-05-21T01:56:37.075Z,3.63
2023-05-21T01:59:03.645Z,3.63
2023-05-21T02:01:30.624Z,4.38
2023-05-21T02:03:58.156Z,4.00
2023-05-21T02:06:24.891Z,4.30
2023-05-21T02:08:52.072Z,3.90
2023-05-21T02:11:18.642Z,4.20
2023-05-21T02:13:46.205Z,4.13
2023-05-21T02:16:14.979Z,4.50
2023-05-21T02:18:46.413Z,4.43
2023-05-21T02:21:13.057Z,4.18
2023-05-21T02:23:39.684Z,3.92
2023-05-21T02:26:06.447Z,4.35
2023-05-21T02:28:34.120Z,3.85
2023-05-21T02:31:01.200Z,4.60
2023-05-21T02:33:27.826Z,4.18
2023-05-21T02:35:54.368Z,3.78
2023-05-21T02:38:23.118Z,3.85
2023-05-21T02:40:51.093Z,4.15
2023-05-21T02:43:17.729Z,4.68
2023-05-21T02:45:44.323Z,3.92
2023-05-21T02:48:11.494Z,5.05
2023-05-21T02:50:38.176Z,4.57
2023-05-21T02:53:04.734Z,4.18
2023-05-21T02:55:31.342Z,4.45
2023-05-21T02:57:57.912Z,4.60
2023-05-21T03:00:24.460Z,5.10
2023-05-21T03:02:51.180Z,4.75
2023-05-21T03:05:17.805Z,4.32
2023-05-21T03:07:44.395Z,4.80
2023-05-21T03:10:11.045Z,4.80
2023-05-21T03:12:38.178Z,4.70
2023-05-21T03:15:05.248Z,4.80
2023-05-21T03:17:32.228Z,4.55
2023-05-21T03:19:58.853Z,4.75
2023-05-21T03:22:25.405Z,5.10
2023-05-21T03:24:53.539Z,5.18
2023-05-21T03:27:20.112Z,4.65
2023-05-21T03:29:46.703Z,4.70
2023-05-21T03:32:14.028Z,4.35
2023-05-21T03:34:40.773Z,5.10
2023-05-21T03:37:07.326Z,5.75
2023-05-21T03:39:33.925Z,5.28
2023-05-21T03:42:00.494Z,5.00
2023-05-21T03:44:27.150Z,4.68
2023-05-21T03:46:53.673Z,5.15
2023-05-21T03:49:20.807Z,5.05
2023-05-21T03:51:47.356Z,5.60
2023-05-21T03:54:13.917Z,5.07
2023-05-21T03:56:40.596Z,4.80
2023-05-21T03:59:07.257Z,5.57
2023-05-21T04:01:34.014Z,6.00
2023-05-21T04:04:00.827Z,4.90
2023-05-21T04:06:28.096Z,5.60
2023-05-21T04:08:54.664Z,5.30
2023-05-21T04:11:21.223Z,5.97
2023-05-21T04:13:48.204Z,6.70
2023-05-21T04:16:18.996Z,6.38
2023-05-21T04:18:46.975Z,6.10
2023-05-21T04:21:13.755Z,6.22
2023-05-21T04:23:40.385Z,6.75
2023-05-21T04:26:07.712Z,6.28
2023-05-21T04:28:35.484Z,6.30
2023-05-21T04:31:02.161Z,5.93
2023-05-21T04:33:28.888Z,6.57
2023-05-21T04:35:55.559Z,6.25
2023-05-21T04:38:22.150Z,6.53
2023-05-21T04:40:51.948Z,6.70
2023-05-21T04:43:25.527Z,6.75
2023-05-21T04:45:54.961Z,7.05
2023-05-21T04:48:24.699Z,6.63
2023-05-21T04:50:52.074Z,7.38
2023-05-21T04:53:18.694Z,7.05
2023-05-21T04:55:46.698Z,6.95
2023-05-21T04:58:13.623Z,7.72
2023-05-21T05:00:42.224Z,7.47
2023-05-21T05:03:08.973Z,7.82
2023-05-21T05:05:35.886Z,7.50
2023-05-21T05:08:02.839Z,8.15
2023-05-21T05:10:29.592Z,7.35
2023-05-21T05:12:56.138Z,7.55
2023-05-21T05:15:30.982Z,7.20
2023-05-21T05:18:12.168Z,6.95
2023-05-21T05:20:38.919Z,5.55
2023-05-21T05:23:05.532Z,6.22
2023-05-21T05:25:33.087Z,5.97
2023-05-21T05:27:59.793Z,6.22
2023-05-21T05:30:26.346Z,5.95
2023-05-21T05:32:52.939Z,6.60
2023-05-21T05:35:19.694Z,5.22
2023-05-21T05:37:46.290Z,5.95
2023-05-21T05:40:12.880Z,6.30
2023-05-21T05:42:39.519Z,5.65
2023-05-21T05:45:06.759Z,6.72
2023-05-21T05:47:33.380Z,6.53
2023-05-21T05:50:02.250Z,6.45
2023-05-21T05:52:32.080Z,5.80
2023-05-21T05:57:25.208Z,6.35
2023-05-21T05:59:51.753Z,6.53
2023-05-21T06:02:18.459Z,6.40
2023-05-21T06:04:45.004Z,6.40
2023-05-21T06:07:11.547Z,6.28
2023-05-21T06:09:38.981Z,7.45
2023-05-21T06:12:07.076Z,7.20
2023-05-21T06:14:33.846Z,6.55
2023-05-21T06:17:00.458Z,6.93
2023-05-21T06:19:27.043Z,6.75
2023-05-21T06:21:53.649Z,6.57
2023-05-21T06:24:21.200Z,6.15
2023-05-21T06:26:47.747Z,6.20
2023-05-21T06:29:15.504Z,6.78
2023-05-21T06:31:42.212Z,6.43
2023-05-21T06:34:08.790Z,6.00
2023-05-21T06:36:35.449Z,5.47
2023-05-21T06:39:03.241Z,5.10
2023-05-21T06:41:29.900Z,5.05
2023-05-21T06:43:56.818Z,5.68
2023-05-21T06:46:23.429Z,6.45
2023-05-21T06:48:50.118Z,5.88
2023-05-21T06:51:16.700Z,6.15
2023-05-21T06:53:43.296Z,5.75
2023-05-21T06:56:09.828Z,6.38
2023-05-21T06:58:36.492Z,6.50
2023-05-21T07:01:03.170Z,6.43
2023-05-21T07:03:29.872Z,5.85
2023-05-21T07:05:57.575Z,5.63
2023-05-21T07:08:24.344Z,6.15
2023-05-21T07:10:50.971Z,6.60
2023-05-21T07:13:17.617Z,6.53
2023-05-21T07:15:44.194Z,5.57
2023-05-21T07:18:12.085Z,5.32
2023-05-21T07:20:38.931Z,5.43
2023-05-21T07:23:05.462Z,5.25
2023-05-21T07:25:32.001Z,5.05
2023-05-21T07:27:58.589Z,5.50
2023-05-21T07:30:25.210Z,6.15
2023-05-21T07:32:52.011Z,5.15
2023-05-21T07:35:19.567Z,4.72
2023-05-21T07:37:46.733Z,4.40
2023-05-21T07:40:13.827Z,5.38
2023-05-21T07:42:42.854Z,4.57
2023-05-21T07:45:09.806Z,4.32
2023-05-21T07:47:36.403Z,4.32
2023-05-21T07:50:03.206Z,4.55
2023-05-21T07:52:29.854Z,4.10
2023-05-21T07:54:56.398Z,4.20
2023-05-21T07:57:23.392Z,4.50
2023-05-21T07:59:49.940Z,4.03
2023-05-21T08:02:16.705Z,4.60
2023-05-21T08:04:44.481Z,4.40
2023-05-21T08:07:11.201Z,5.03
2023-05-21T08:09:37.841Z,4.88
2023-05-21T08:12:04.636Z,4.95
2023-05-21T08:14:31.235Z,4.80
2023-05-21T08:16:57.880Z,4.65
2023-05-21T08:19:24.431Z,4.25
2023-05-21T08:21:52.856Z,3.33
2023-05-21T08:24:19.751Z,3.40
2023-05-21T08:26:47.495Z,4.20
2023-05-21T08:29:14.140Z,4.03
2023-05-21T08:31:40.753Z,3.90
2023-05-21T08:34:07.330Z,3.42
2023-05-21T08:36:33.949Z,3.75
2023-05-21T08:39:00.478Z,3.53
2023-05-21T08:41:30.850Z,3.85
2023-05-21T08:43:58.224Z,3.55
2023-05-21T08:46:26.628Z,3.80
2023-05-21T08:48:55.079Z,3.70
2023-05-21T08:51:22.654Z,4.05
2023-05-21T08:53:50.568Z,3.83
2023-05-21T08:56:18.183Z,2.97
2023-05-21T08:58:46.740Z,3.35
2023-05-21T09:01:13.415Z,3.22
2023-05-21T09:03:41.101Z,3.60
2023-05-21T09:06:11.420Z,3.05
2023-05-21T09:08:42.476Z,3.63
2023-05-21T09:11:09.017Z,4.25
2023-05-21T09:13:38.964Z,3.22
2023-05-21T09:16:07.098Z,3.95
2023-05-21T09:18:33.751Z,3.28
2023-05-21T09:21:23.930Z,2.90
2023-05-21T09:23:57.772Z,3.20
2023-05-21T09:26:25.735Z,3.83
2023-05-21T09:28:57.752Z,3.47
2023-05-21T09:31:25.932Z,3.40
2023-05-21T09:33:52.926Z,3.03
2023-05-21T09:36:22.278Z,3.00
2023-05-21T09:38:50.373Z,3.25
2023-05-21T09:41:21.172Z,2.88
2023-05-21T09:43:48.986Z,3.55
2023-05-21T09:46:15.608Z,2.88
2023-05-21T09:48:43.222Z,3.17
2023-05-21T09:51:14.081Z,2.97
2023-05-21T09:53:49.671Z,3.03
2023-05-21T09:56:19.410Z,3.20
2023-05-21T09:58:46.504Z,2.60
2023-05-21T10:01:13.646Z,3.22
2023-05-21T10:03:41.606Z,3.33
2023-05-21T10:06:10.169Z,2.95
2023-05-21T10:08:41.267Z,3.05
2023-05-21T10:11:09.123Z,3.20
2023-05-21T10:13:41.678Z,3.80
2023-05-21T10:16:08.555Z,3.00
2023-05-21T10:18:37.365Z,3.17
2023-05-21T10:21:04.967Z,2.95
2023-05-21T10:23:32.101Z,2.85
2023-05-21T10:25:59.899Z,3.10
2023-05-21T10:28:31.313Z,2.95
2023-05-21T10:30:57.918Z,2.83
2023-05-21T10:33:25.686Z,2.63
2023-05-21T10:35:54.459Z,3.20
2023-05-21T10:38:21.224Z,2.95
2023-05-21T10:40:49.162Z,2.70
2023-05-21T10:43:53.179Z,3.00
2023-05-21T10:46:32.055Z,2.90
2023-05-21T10:49:16.616Z,3.00
2023-05-21T10:51:52.229Z,3.13
2023-05-21T10:54:38.715Z,2.95
2023-05-21T10:57:39.975Z,2.53
2023-05-21T11:00:09.646Z,3.55
2023-05-21T11:02:37.014Z,2.83
2023-05-21T11:05:04.582Z,3.05
2023-05-21T11:07:59.056Z,2.95
2023-05-21T11:10:38.790Z,2.88
2023-05-21T11:13:12.102Z,2.78
2023-05-21T11:15:57.220Z,2.55
2023-05-21T11:18:24.524Z,2.88
2023-05-21T11:20:51.760Z,2.95
2023-05-21T11:23:21.224Z,2.92
2023-05-21T11:26:01.396Z,3.25
2023-05-21T11:28:34.421Z,2.92
2023-05-21T11:31:26.972Z,2.88
2023-05-21T11:34:22.178Z,2.85
2023-05-21T11:36:50.158Z,2.70
2023-05-21T11:39:22.537Z,2.55
2023-05-21T11:42:00.467Z,2.53
2023-05-21T11:44:42.669Z,3.35
2023-05-21T11:47:15.018Z,2.78
2023-05-21T11:49:42.403Z,2.92
2023-05-21T11:52:10.614Z,3.00
2023-05-21T11:54:43.222Z,3.00
2023-05-21T11:57:10.567Z,2.75
2023-05-21T11:59:37.395Z,2.88
2023-05-21T12:02:04.990Z,2.70
2023-05-21T12:04:36.414Z,3.10
2023-05-21T12:07:10.073Z,2.67
2023-05-21T12:09:40.991Z,2.80
2023-05-21T12:12:13.359Z,2.50
2023-05-21T12:14:40.437Z,2.55
2023-05-21T12:17:07.669Z,3.85
2023-05-21T12:19:35.664Z,3.10
2023-05-21T12:22:21.825Z,3.03
2023-05-21T12:25:04.449Z,2.85
2023-05-21T12:27:39.071Z,3.05
2023-05-21T12:30:14.650Z,2.65
2023-05-21T12:32:53.287Z,2.45
2023-05-21T12:35:24.555Z,2.85
2023-05-21T12:41:54.796Z,2.92
2023-05-21T12:55:35.704Z,2.80
2023-05-21T13:01:50.059Z,2.45
2023-05-21T13:04:19.594Z,2.95
2023-05-21T13:07:10.742Z,2.40
2023-05-21T13:09:37.269Z,2.67
2023-05-21T13:16:19.244Z,2.38
2023-05-21T13:25:35.196Z,2.90
2023-05-21T13:28:03.934Z,2.22
2023-05-21T13:30:30.837Z,2.35
2023-05-21T13:32:57.570Z,2.70
2023-05-21T13:35:24.311Z,1.90
2023-05-21T13:37:51.142Z,2.60
2023-05-21T13:40:18.124Z,2.70
2023-05-21T13:42:46.464Z,2.55
2023-05-21T13:45:16.377Z,2.67
2023-05-21T13:47:44.340Z,2.63
2023-05-21T13:50:11.318Z,2.45
2023-05-21T13:52:38.370Z,2.40
2023-05-21T13:55:05.914Z,2.72
2023-05-21T13:57:32.680Z,2.75
2023-05-21T14:00:00.079Z,2.33
2023-05-21T14:02:26.928Z,2.83
2023-05-21T14:04:54.007Z,3.00
2023-05-21T14:07:21.560Z,2.65
2023-05-21T14:09:48.332Z,2.63
2023-05-21T14:12:14.826Z,3.22
2023-05-21T14:14:42.090Z,2.55
2023-05-21T14:17:08.655Z,3.50
2023-05-21T14:19:35.459Z,3.15
2023-05-21T14:22:02.119Z,3.35
2023-05-21T14:24:28.680Z,3.10
2023-05-21T14:26:55.203Z,3.22
2023-05-21T14:29:21.768Z,3.25
2023-05-21T14:31:48.572Z,2.75
2023-05-21T14:34:15.188Z,3.13
2023-05-21T14:36:41.811Z,3.60
2023-05-21T14:39:08.354Z,4.03
2023-05-21T14:41:39.248Z,4.15
2023-05-21T14:44:05.769Z,4.25
2023-05-21T14:46:32.679Z,4.05
2023-05-21T14:49:00.524Z,3.58
2023-05-21T14:51:27.151Z,4.05
2023-05-21T14:53:53.720Z,4.22
2023-05-21T14:56:21.930Z,4.05
2023-05-21T14:58:48.706Z,3.90
2023-05-21T15:01:15.564Z,3.75
2023-05-21T15:03:42.207Z,3.40
2023-05-21T15:06:09.123Z,3.75
2023-05-21T15:08:35.874Z,3.75
2023-05-21T15:11:02.458Z,3.55
2023-05-21T15:13:29.106Z,4.25
2023-05-21T15:15:55.811Z,3.58
2023-05-21T15:18:24.676Z,3.65
2023-05-21T15:20:51.592Z,3.90
2023-05-21T15:23:18.231Z,4.00
2023-05-21T15:25:45.581Z,3.67
2023-05-21T15:28:12.672Z,4.63
2023-05-21T15:30:39.771Z,3.67
2023-05-21T15:33:06.560Z,3.88
2023-05-21T15:35:35.489Z,4.38
2023-05-21T15:38:02.736Z,4.20
2023-05-21T15:40:29.314Z,4.03
2023-05-21T15:42:55.835Z,4.70
2023-05-21T15:45:22.445Z,4.57
2023-05-21T15:47:48.981Z,4.78
2023-05-21T15:50:15.661Z,5.13
2023-05-21T15:52:42.807Z,5.05
2023-05-21T15:55:09.867Z,4.75
2023-05-21T15:57:36.446Z,4.05
2023-05-21T16:00:03.940Z,4.72
2023-05-21T16:02:30.681Z,4.20
2023-05-21T16:04:57.311Z,4.75
2023-05-21T16:07:24.667Z,4.50
2023-05-21T16:09:51.306Z,4.07
2023-05-21T16:12:18.151Z,4.35
2023-05-21T16:14:44.972Z,4.40
2023-05-21T16:17:11.654Z,4.20
2023-05-21T16:19:39.042Z,4.50
2023-05-21T16:22:05.866Z,4.65
2023-05-21T16:24:32.471Z,4.45
2023-05-21T16:26:59.051Z,4.50
2023-05-21T16:29:25.587Z,5.20
2023-05-21T16:31:52.176Z,4.55
2023-05-21T16:34:18.749Z,4.30
2023-05-21T16:36:45.434Z,5.25
2023-05-21T16:39:11.993Z,4.68
2023-05-21T16:41:38.530Z,4.88
2023-05-21T16:44:05.062Z,4.13
2023-05-21T16:46:31.677Z,4.70
2023-05-21T16:48:58.239Z,4.00
2023-05-21T16:51:24.872Z,4.72
2023-05-21T16:53:51.600Z,5.18
2023-05-21T16:56:18.299Z,4.18
2023-05-21T16:58:44.947Z,4.30
2023-05-21T17:01:11.629Z,4.25
2023-05-21T17:03:39.719Z,4.50
2023-05-21T17:06:07.595Z,4.35
2023-05-21T17:08:34.173Z,4.47
2023-05-21T17:11:00.933Z,4.40
2023-05-21T17:13:27.646Z,4.10
2023-05-21T17:15:54.284Z,4.55
2023-05-21T17:18:20.904Z,4.53
2023-05-21T17:20:47.486Z,4.20
2023-05-21T17:23:14.221Z,4.50
2023-05-21T17:25:41.299Z,3.85
2023-05-21T17:28:08.118Z,3.83
2023-05-21T17:30:34.764Z,4.60
2023-05-21T17:33:03.713Z,4.13
2023-05-21T17:35:30.511Z,4.05
2023-05-21T17:37:57.085Z,3.83
2023-05-21T17:40:24.700Z,4.22
2023-05-21T17:42:52.316Z,3.97
2023-05-21T17:45:19.046Z,4.18
2023-05-21T17:47:45.976Z,4.50
2023-05-21T17:50:12.690Z,4.13
2023-05-21T17:52:39.305Z,3.88
2023-05-21T17:55:06.250Z,4.35
2023-05-21T17:57:32.892Z,4.05
2023-05-21T17:59:59.471Z,3.92
2023-05-21T18:02:27.445Z,3.85
2023-05-21T18:04:54.147Z,4.38
2023-05-21T18:07:22.162Z,4.97
2023-05-21T18:09:48.768Z,4.13
2023-05-21T18:12:15.624Z,4.43
2023-05-21T18:14:42.187Z,4.43
2023-05-21T18:17:08.772Z,4.55
2023-05-21T18:19:35.390Z,4.10
2023-05-21T18:22:02.002Z,4.65
2023-05-21T18:24:28.611Z,4.28
2023-05-21T18:26:55.220Z,4.53
2023-05-21T18:29:21.758Z,4.65
2023-05-21T18:31:48.503Z,4.07
2023-05-21T18:34:16.811Z,4.30
2023-05-21T18:36:43.418Z,4.55
2023-05-21T18:39:10.233Z,4.68
2023-05-21T18:41:37.492Z,4.82
2023-05-21T18:44:06.034Z,3.97
2023-05-21T18:46:32.880Z,4.57
2023-05-21T18:49:00.502Z,4.85
2023-05-21T18:51:27.121Z,5.32
2023-05-21T18:53:53.725Z,5.05
2023-05-21T18:56:21.810Z,4.60
2023-05-21T18:58:48.613Z,5.00
2023-05-21T19:01:15.901Z,4.72
2023-05-21T19:03:42.593Z,4.60
2023-05-21T19:06:09.328Z,4.70
2023-05-21T19:08:35.895Z,5.05
2023-05-21T19:11:02.580Z,4.97
2023-05-21T19:13:29.500Z,5.72
2023-05-21T19:15:57.470Z,4.30
2023-05-21T19:18:30.202Z,4.18
2023-05-21T19:20:57.390Z,4.25
2023-05-21T19:23:24.822Z,4.93
2023-05-21T19:25:51.510Z,4.78
2023-05-21T19:28:18.786Z,4.82
2023-05-21T19:30:46.401Z,4.40
2023-05-21T19:33:13.604Z,5.22
2023-05-21T19:35:41.959Z,4.32
2023-05-21T19:38:11.408Z,5.43
2023-05-21T19:40:38.626Z,4.97
2023-05-21T19:43:05.562Z,5.43
2023-05-21T19:45:32.369Z,4.38
2023-05-21T19:47:59.807Z,4.95
2023-05-21T19:50:28.635Z,4.95
2023-05-21T19:52:57.294Z,5.28
2023-05-21T19:55:24.748Z,4.95
2023-05-21T19:57:51.550Z,5.13
2023-05-21T20:00:18.874Z,5.25
2023-05-21T20:02:46.008Z,5.25
2023-05-21T20:05:12.741Z,4.75
2023-05-21T20:07:39.636Z,4.53
2023-05-21T20:10:07.003Z,4.95
2023-05-21T20:12:33.600Z,4.93
2023-05-21T20:15:00.904Z,5.07
2023-05-21T20:17:28.669Z,5.00
2023-05-21T20:19:57.245Z,4.90
2023-05-21T20:22:23.850Z,5.32
2023-05-21T20:24:50.706Z,4.65
2023-05-21T20:27:19.488Z,4.88
2023-05-21T20:29:46.820Z,5.15
2023-05-21T20:32:13.473Z,5.93
2023-05-21T20:34:54.265Z,5.22
2023-05-21T20:37:29.192Z,4.63
2023-05-21T20:39:58.008Z,5.32
2023-05-21T20:42:28.786Z,5.63
2023-05-21T20:44:58.823Z,4.40
2023-05-21T20:47:29.695Z,5.88
2023-05-21T20:49:59.846Z,4.93
2023-05-21T20:52:26.820Z,5.63
2023-05-21T20:54:59.399Z,5.40
2023-05-21T20:57:28.358Z,5.22
2023-05-21T20:59:54.906Z,4.78
2023-05-21T21:02:22.868Z,5.13
2023-05-21T21:04:50.653Z,6.13
2023-05-21T21:07:20.777Z,5.45
2023-05-21T21:09:48.888Z,5.45
2023-05-21T21:12:25.796Z,5.43
2023-05-21T21:14:52.998Z,6.32
2023-05-21T21:17:19.642Z,4.72
2023-05-21T21:19:46.289Z,5.03
2023-05-21T21:22:12.990Z,5.38
2023-05-21T21:24:39.596Z,5.60
2023-05-21T21:27:06.697Z,5.65
2023-05-21T21:29:33.230Z,6.00
2023-05-21T21:31:59.818Z,4.88
2023-05-21T21:34:26.432Z,5.47
2023-05-21T21:36:54.062Z,5.72
2023-05-21T21:39:20.768Z,5.55
2023-05-21T21:41:47.430Z,5.72
2023-05-21T21:44:14.046Z,5.43
2023-05-21T21:46:40.827Z,5.22
2023-05-21T21:49:07.344Z,5.22
2023-05-21T21:51:34.122Z,5.22
2023-05-21T21:54:00.750Z,5.40
2023-05-21T21:56:27.366Z,6.22
2023-05-21T21:58:53.935Z,5.10
2023-05-21T22:01:20.619Z,5.03
2023-05-21T22:03:47.185Z,5.53
2023-05-21T22:06:13.762Z,4.97
2023-05-21T22:08:40.322Z,5.78
2023-05-21T22:11:07.123Z,5.13
2023-05-21T22:13:34.416Z,5.88
2023-05-21T22:16:02.050Z,5.55
2023-05-21T22:18:40.218Z,4.85
2023-05-21T22:21:09.784Z,5.53
2023-05-21T22:23:37.159Z,4.93
2023-05-21T22:26:03.882Z,5.72
2023-05-21T22:28:30.524Z,5.68
2023-05-21T22:30:57.298Z,5.53
2023-05-21T22:33:24.433Z,5.03
2023-05-21T22:35:51.171Z,5.63
2023-05-21T22:38:18.052Z,5.35
2023-05-21T22:40:44.704Z,5.72
2023-05-21T22:43:11.383Z,6.35
2023-05-21T22:45:38.397Z,6.00
2023-05-21T22:48:08.498Z,6.10
2023-05-21T22:50:36.081Z,6.15
2023-05-21T22:53:02.911Z,7.45
2023-05-21T22:55:29.580Z,5.55
2023-05-21T22:57:56.217Z,5.90
2023-05-21T23:00:22.952Z,5.55
2023-05-21T23:02:52.138Z,4.80
2023-05-21T23:05:20.505Z,6.13
2023-05-21T23:07:47.120Z,5.95
2023-05-21T23:10:13.683Z,5.80
2023-05-21T23:12:40.962Z,5.70
2023-05-21T23:15:09.747Z,5.90
2023-05-21T23:17:37.056Z,5.80
2023-05-21T23:20:04.085Z,6.60
2023-05-21T23:22:30.651Z,6.90
2023-05-21T23:24:57.242Z,6.95
2023-05-21T23:27:24.019Z,5.80
2023-05-21T23:29:50.698Z,5.53
2023-05-21T23:32:17.883Z,6.25
2023-05-21T23:34:44.734Z,5.68
2023-05-21T23:37:11.379Z,6.82
2023-05-21T23:39:38.049Z,5.75
2023-05-21T23:42:04.978Z,5.95
2023-05-21T23:44:31.531Z,6.05
2023-05-21T23:46:58.142Z,5.20
2023-05-21T23:49:24.689Z,5.60
2023-05-21T23:51:51.446Z,5.95
2023-05-21T23:54:18.186Z,5.55
2023-05-21T23:56:45.381Z,5.07
2023-05-21T23:59:12.050Z,5.78
